Saturday, November 18, 2017, 4:30 PM EST
Back to Local

KSLK, Adirondack Regional Airport

Location: Saranac Lake, NY, United States Lat: 44.4
Local Time: 4:30 PM EST (21:30 GMT) Lon: -74.2
Time Zone: US/Eastern Elev: 1663 ft

Show me the last for .
Show Decoded

2017-11-18 15:51 METAR KSLK 182051Z AUTO 22009KT 10SM -RA OVC026 03/M03 A2947 RMK AO2 RAB51
                 SLP999 P0000 60000 T00331028 56027 =
2017-11-18 14:51 METAR KSLK 181951Z AUTO 00000KT 10SM OVC027 02/M02 A2950 RMK AO2 SLP012
                 T00171022 =
2017-11-18 14:24 METAR KSLK 181924Z AUTO 00000KT 10SM BKN029 OVC047 02/M02 A2950 RMK AO2
                 T00171022 =
2017-11-18 13:51 METAR KSLK 181851Z AUTO 00000KT 10SM OVC055 01/M03 A2950 RMK AO2 SLP012
                 T00111033 =
2017-11-18 12:51 METAR KSLK 181751Z AUTO 00000KT 10SM OVC060 02/M04 A2955 RMK AO2 UPB08E22 SLP030
                 P0000 60000 T00171039 10017 21106 58034 =
2017-11-18 11:51 METAR KSLK 181651Z AUTO 00000KT 10SM BKN055 OVC085 00/M04 A2961 RMK AO2 SLP053
                 T00001044 =
2017-11-18 10:51 METAR KSLK 181551Z AUTO 05005KT 10SM OVC100 M03/M06 A2963 RMK AO2 SLP059
                 T10281056 $ =
2017-11-18 09:51 METAR KSLK 181451Z AUTO 00000KT 10SM OVC110 M04/M07 A2966 RMK AO2 SLP070
                 T10391067 58034 $ =
2017-11-18 08:51 METAR KSLK 181351Z AUTO 00000KT 10SM FEW120 M06/M08 A2970 RMK AO2 SLP086
                 T10561083 $ =
2017-11-18 07:51 METAR KSLK 181251Z AUTO 02003KT 10SM OVC120 M07/M09 A2973 RMK AO2 SLP097
                 T10721094 $ =
2017-11-18 06:51 METAR KSLK 181151Z AUTO 01003KT 10SM CLR M11/M12 A2976 RMK AO2 SLP107 T11061117
                 11089 21133 56030 $ =
2017-11-18 05:51 METAR KSLK 181051Z AUTO 00000KT 10SM BKN100 M09/M10 A2979 RMK AO2 SLP116
                 T10891100 $ =
2017-11-18 04:51 METAR KSLK 180951Z AUTO 00000KT 10SM FEW100 M11/M11 A2982 RMK AO2 SLP126
                 T11061111 $ =
2017-11-18 03:51 METAR KSLK 180851Z AUTO 00000KT 10SM BKN100 M11/M13 A2986 RMK AO2 SLP139
                 T11111128 58019 $ =
2017-11-18 02:51 METAR KSLK 180751Z AUTO 00000KT 10SM CLR M13/M14 A2990 RMK AO2 SLP153 T11281139
                 $ =
2017-11-18 01:51 METAR KSLK 180651Z AUTO 00000KT 10SM CLR M13/M14 A2990 RMK AO2 SLP156 T11281144
                 $ =
2017-11-18 00:51 METAR KSLK 180551Z AUTO 00000KT 10SM CLR M13/M14 A2992 RMK AO2 SLP161 I6000
                 T11281139 11078 21133 58022 $ =
2017-11-17 23:51 METAR KSLK 180451Z AUTO 00000KT 10SM CLR M13/M15 A2994 RMK AO2 PRESFR SLP168
                 T11331150 410281133 $ =
2017-11-17 22:51 METAR KSLK 180351Z AUTO 00000KT 10SM CLR M12/M13 A2997 RMK AO2 SLP179 I1000
                 T11221133 $ =
2017-11-17 21:51 METAR KSLK 180251Z AUTO 00000KT 10SM CLR M12/M13 A2998 RMK AO2 SLP184 I1000
                 I3000 T11171133 57015 $ =
2017-11-17 20:51 METAR KSLK 180151Z AUTO 00000KT 10SM CLR M11/M13 A3000 RMK AO2 SLP189 T11111133
                 $ =
2017-11-17 19:51 METAR KSLK 180051Z AUTO 00000KT 10SM CLR M10/M11 A3002 RMK AO2 SLP194 T11001111
                 $ =
2017-11-17 18:51 METAR KSLK 172351Z AUTO 21003KT 10SM CLR M08/M10 A3003 RMK AO2 SLP197 T10781100
                 11033 21078 50002 $ =
2017-11-17 17:51 METAR KSLK 172251Z AUTO VRB03KT 10SM CLR M07/M09 A3005 RMK AO2 SLP202 T10721094
                 $ =
2017-11-17 16:51 METAR KSLK 172151Z AUTO 25005KT 10SM CLR M06/M09 A3003 RMK AO2 SLP194 T10561094
                 $ =

Support USWX by starting your Amazon purchase here.